This is the latest recevied weather packets stored in our database for station/object WB0VGI-1. If no packets are shown the sender has not sent any weather packets the latest 10 day(s).
| Time | Temp. | Humidity | Pressure | Rain* | Wind** | Luminosity | Snow |
|---|---|---|---|---|---|---|---|
| 1778324826 | 7.22° C | 99% | 1007.5 hPa | 0 mm | - | - | - |
| 1778323626 | 7.22° C | 99% | 1007.2 hPa | 0 mm | - | - | - |
| 1778322426 | 7.78° C | 99% | 1006.9 hPa | 0 mm | - | - | - |
| 1778321226 | 7.22° C | 99% | 1006.7 hPa | 0 mm | - | - | - |
| 1778320026 | 7.78° C | 99% | 1006.7 hPa | 1.27 mm | - | - | - |
| 1778318826 | 7.78° C | 99% | 1007 hPa | 3.3 mm | - | - | - |
| 1778317626 | 7.78° C | 99% | 1006.9 hPa | 2.54 mm | - | - | - |
| 1778316426 | 8.33° C | 95% | 1006.8 hPa | 3.05 mm | - | - | - |
| 1778315225 | 9.44° C | 86% | 1006.8 hPa | 0 mm | - | - | - |
| 1778314026 | 11.11° C | 63% | 1006.4 hPa | 0 mm | - | - | - |
| 1778312826 | 11.67° C | 51% | 1005.9 hPa | 0 mm | - | - | - |
| 1778311626 | 11.67° C | 49% | 1006.1 hPa | 0 mm | - | - | - |
| 1778310426 | 11.11° C | 54% | 1006.2 hPa | 0 mm | - | - | - |
| 1778309226 | 10° C | 59% | 1006.2 hPa | 0 mm | - | - | - |
| 1778308025 | 10.56° C | 49% | 1005.7 hPa | 0 mm | - | - | - |
| 1778306826 | 11.11° C | 44% | 1005.7 hPa | 0 mm | - | - | - |
| 1778305625 | 11.11° C | 43% | 1006 hPa | 0 mm | - | - | - |
| 1778304425 | 11.67° C | 42% | 1005.8 hPa | 0 mm | - | - | - |
| 1778303226 | 11.11° C | 42% | 1006 hPa | 0 mm | - | - | - |
| 1778302025 | 11.67° C | 41% | 1006 hPa | 0 mm | - | - | - |
| 1778300825 | 12.22° C | 40% | 1006.4 hPa | 0 mm | - | - | - |
| 1778299625 | 13.33° C | 39% | 1006.2 hPa | 0 mm | - | - | - |
| 1778298425 | 13.89° C | 39% | 1006.1 hPa | 0 mm | - | - | - |
| 1778297225 | 13.89° C | 39% | 1005.8 hPa | 0 mm | - | - | - |
| 1778296025 | 14.44° C | 39% | 1005.6 hPa | 0 mm | - | - | - |
* Rain latest hour (hover to see other rain measurements)
** Current wind speed in m/s (hover to see current wind gust speed)